createdAt,value
2019-03-12T00:00:44.597Z,3.70
2019-03-12T00:03:34.554Z,4.00
2019-03-12T00:06:24.895Z,3.73
2019-03-12T00:09:27.594Z,3.80
2019-03-12T00:12:00.450Z,4.07
2019-03-12T00:14:50.401Z,3.73
2019-03-12T00:17:40.287Z,4.43
2019-03-12T00:20:30.153Z,3.50
2019-03-12T00:23:20.013Z,4.37
2019-03-12T00:26:09.878Z,4.40
2019-03-12T00:28:59.723Z,4.30
2019-03-12T00:31:49.573Z,4.90
2019-03-12T00:34:39.399Z,4.80
2019-03-12T00:37:40.623Z,5.10
2019-03-12T00:40:12.534Z,4.77
2019-03-12T00:43:02.403Z,5.07
2019-03-12T00:45:52.260Z,4.57
2019-03-12T00:48:42.149Z,5.30
2019-03-12T00:51:31.978Z,4.73
2019-03-12T00:54:21.819Z,5.50
2019-03-12T00:57:11.648Z,5.13
2019-03-12T00:59:42.177Z,5.30
2019-03-12T01:02:32.008Z,5.17
2019-03-12T01:05:33.242Z,5.07
2019-03-12T01:08:17.276Z,4.83
2019-03-12T01:10:48.627Z,5.17
2019-03-12T01:13:38.517Z,4.83
2019-03-12T01:16:40.292Z,4.70
2019-03-12T01:19:24.228Z,4.83
2019-03-12T01:21:54.788Z,4.90
2019-03-12T01:24:44.648Z,4.40
2019-03-12T01:27:34.507Z,4.70
2019-03-12T01:30:36.327Z,4.77
2019-03-12T01:33:21.427Z,4.00
2019-03-12T01:35:54.727Z,3.83
2019-03-12T01:38:44.616Z,4.50
2019-03-12T01:41:34.471Z,5.00
2019-03-12T01:44:24.317Z,4.00
2019-03-12T01:46:54.780Z,4.23
2019-03-12T01:49:44.615Z,4.60
2019-03-12T01:52:34.496Z,4.37
2019-03-12T01:55:36.497Z,3.97
2019-03-12T01:58:21.849Z,4.60
2019-03-12T02:00:54.982Z,4.27
2019-03-12T02:04:03.822Z,4.07
2019-03-12T02:06:53.629Z,4.17
2019-03-12T02:09:55.177Z,4.30
2019-03-12T02:12:38.246Z,4.20
2019-03-12T02:15:21.980Z,4.80
2019-03-12T02:17:54.890Z,3.87
2019-03-12T02:20:44.742Z,4.23
2019-03-12T02:23:46.540Z,4.30
2019-03-12T02:26:30.654Z,4.80
2019-03-12T02:29:02.749Z,3.93
2019-03-12T02:32:06.217Z,4.30
2019-03-12T02:34:49.954Z,4.50
2019-03-12T02:37:32.437Z,4.00
2019-03-12T02:40:03.996Z,4.60
2019-03-12T02:43:05.794Z,4.03
2019-03-12T02:45:50.821Z,3.90
2019-03-12T02:48:24.070Z,3.97
2019-03-12T02:51:32.906Z,3.20
2019-03-12T02:54:34.031Z,3.63
2019-03-12T02:57:17.793Z,3.77
2019-03-12T03:00:03.048Z,3.60
2019-03-12T03:02:34.105Z,3.53
2019-03-12T03:08:38.376Z,4.00
2019-03-12T03:11:09.225Z,3.63
2019-03-12T03:13:59.065Z,4.30
2019-03-12T03:16:48.914Z,4.07
2019-03-12T03:19:50.640Z,3.43
2019-03-12T03:22:32.611Z,3.80
2019-03-12T03:28:06.678Z,3.87
2019-03-12T03:31:08.602Z,4.20
2019-03-12T03:33:51.060Z,4.20
2019-03-12T03:36:35.946Z,4.00
2019-03-12T03:39:07.339Z,4.13
2019-03-12T03:41:57.156Z,3.90
2019-03-12T03:44:58.875Z,4.30
2019-03-12T03:47:42.540Z,4.10
2019-03-12T03:50:13.722Z,4.43
2019-03-12T03:53:03.562Z,4.50
2019-03-12T03:55:53.446Z,4.10
2019-03-12T03:58:43.265Z,4.13
2019-03-12T04:01:44.412Z,4.70
2019-03-12T04:04:15.434Z,4.27
2019-03-12T04:07:17.091Z,4.73
2019-03-12T04:10:03.218Z,4.23
2019-03-12T04:12:48.134Z,4.73
2019-03-12T04:15:34.031Z,4.67
2019-03-12T04:18:18.867Z,4.03
2019-03-12T04:20:51.436Z,4.60
2019-03-12T04:24:00.277Z,4.80
2019-03-12T04:26:52.236Z,4.10
2019-03-12T04:29:42.086Z,4.00
2019-03-12T04:32:43.962Z,3.67
2019-03-12T04:35:26.940Z,3.90
2019-03-12T04:38:09.704Z,3.30
2019-03-12T04:40:54.554Z,4.00
2019-03-12T04:43:26.011Z,3.70
2019-03-12T04:46:15.980Z,3.57
2019-03-12T04:49:17.469Z,3.90
2019-03-12T04:51:59.709Z,3.60
2019-03-12T04:54:41.924Z,3.40
2019-03-12T04:57:24.593Z,3.37
2019-03-12T05:00:09.126Z,2.97
2019-03-12T05:02:40.603Z,4.10
2019-03-12T05:05:42.079Z,3.70
2019-03-12T05:08:12.619Z,3.33
2019-03-12T05:10:55.853Z,3.53
2019-03-12T05:13:29.695Z,3.50
2019-03-12T05:16:19.550Z,3.93
2019-03-12T05:19:09.421Z,3.57
2019-03-12T05:21:59.277Z,2.90
2019-03-12T05:24:49.116Z,3.80
2019-03-12T05:27:50.790Z,3.10
2019-03-12T05:30:21.892Z,3.33
2019-03-12T05:33:11.759Z,3.00
2019-03-12T05:35:42.278Z,3.10
2019-03-12T05:38:32.153Z,3.10
2019-03-12T05:41:22.026Z,3.40
2019-03-12T05:44:23.554Z,3.43
2019-03-12T05:47:08.107Z,3.30
2019-03-12T05:49:40.879Z,3.33
2019-03-12T05:52:49.793Z,3.20
2019-03-12T05:55:39.625Z,4.10
2019-03-12T05:58:29.422Z,3.50
2019-03-12T06:01:11.273Z,3.90
2019-03-12T06:03:42.144Z,3.57
2019-03-12T06:06:32.015Z,3.20
2019-03-12T06:09:33.465Z,3.30
2019-03-12T06:12:17.303Z,3.23
2019-03-12T06:14:48.938Z,3.33
2019-03-12T06:17:50.483Z,3.23
2019-03-12T06:20:22.014Z,3.73
2019-03-12T06:23:15.063Z,3.57
2019-03-12T06:25:54.617Z,3.57
2019-03-12T06:28:56.307Z,3.90
2019-03-12T06:31:47.826Z,3.50
2019-03-12T06:34:44.888Z,3.63
2019-03-12T06:37:55.025Z,3.80
2019-03-12T06:41:03.784Z,3.97
2019-03-12T06:44:26.923Z,4.00
2019-03-12T06:47:05.479Z,4.33
2019-03-12T06:50:25.932Z,3.83
2019-03-12T06:53:34.700Z,3.83
2019-03-12T06:56:43.380Z,3.67
2019-03-12T06:59:52.085Z,4.43
2019-03-12T07:03:15.428Z,3.97
2019-03-12T07:06:05.025Z,4.57
2019-03-12T07:09:13.722Z,3.80
2019-03-12T07:12:11.659Z,3.77
2019-03-12T07:15:30.514Z,13.37
2019-03-12T07:18:39.508Z,5.00
2019-03-12T07:21:49.251Z,10.20
2019-03-12T07:24:57.982Z,7.70
2019-03-12T07:28:06.768Z,4.37
2019-03-12T07:31:15.639Z,4.37
2019-03-12T07:34:36.131Z,4.10
2019-03-12T07:37:23.118Z,4.60
2019-03-12T07:40:31.801Z,3.90
2019-03-12T07:43:52.225Z,3.60
2019-03-12T07:47:03.473Z,3.50
2019-03-12T07:50:12.281Z,2.97
2019-03-12T07:53:03.226Z,4.47
2019-03-12T07:56:09.360Z,5.67
2019-03-12T07:59:18.050Z,3.83
2019-03-12T08:01:59.618Z,3.30
2019-03-12T08:04:43.730Z,3.40
2019-03-12T08:07:34.267Z,3.60
2019-03-12T08:10:24.445Z,4.40
2019-03-12T08:13:14.612Z,3.27
2019-03-12T08:16:10.221Z,3.53
2019-03-12T08:19:19.037Z,2.77
2019-03-12T08:22:27.793Z,3.13
2019-03-12T08:25:36.915Z,3.50
2019-03-12T08:28:33.370Z,3.20
2019-03-12T08:31:25.432Z,3.40
2019-03-12T08:34:34.145Z,3.03
2019-03-12T08:37:40.131Z,2.87
2019-03-12T08:40:51.947Z,2.63
2019-03-12T08:43:43.413Z,2.60
2019-03-12T08:46:52.101Z,2.67
2019-03-12T08:50:00.839Z,2.50
2019-03-12T08:53:09.575Z,2.43
2019-03-12T08:56:18.314Z,2.60
2019-03-12T08:59:07.654Z,2.53
2019-03-12T09:02:16.519Z,2.70
2019-03-12T09:05:27.894Z,2.40
2019-03-12T09:08:36.683Z,2.63
2019-03-12T09:11:45.392Z,2.67
2019-03-12T09:14:54.101Z,2.77
2019-03-12T09:18:02.816Z,2.83
2019-03-12T09:21:11.514Z,2.50
2019-03-12T09:24:20.216Z,2.83
2019-03-12T09:27:28.941Z,3.20
2019-03-12T09:30:39.688Z,4.33
2019-03-12T09:33:24.324Z,2.63
2019-03-12T09:36:13.715Z,2.67
2019-03-12T09:39:22.482Z,2.50
2019-03-12T09:42:31.187Z,3.00
2019-03-12T09:48:42.813Z,2.50
2019-03-12T09:51:40.215Z,2.63
2019-03-12T09:54:48.930Z,2.30
2019-03-12T09:57:57.713Z,2.27
2019-03-12T10:01:06.440Z,1.73
2019-03-12T10:04:15.172Z,1.70
2019-03-12T10:07:23.875Z,1.33
2019-03-12T10:10:32.598Z,1.40
2019-03-12T10:13:41.337Z,1.30
2019-03-12T10:16:50.033Z,1.33
2019-03-12T10:19:58.778Z,1.63
2019-03-12T10:26:08.992Z,1.90
2019-03-12T10:29:17.672Z,1.90
2019-03-12T10:32:26.369Z,1.50
2019-03-12T10:35:35.126Z,2.00
2019-03-12T10:39:10.970Z,2.43
2019-03-12T10:42:05.938Z,3.90
2019-03-12T10:45:03.833Z,2.80
2019-03-12T10:47:54.100Z,2.63
2019-03-12T10:50:43.979Z,2.37
2019-03-12T10:53:33.845Z,3.80
2019-03-12T10:56:35.623Z,1.93
2019-03-12T10:59:08.303Z,1.83
2019-03-12T11:01:58.182Z,1.80
2019-03-12T11:04:48.069Z,1.50
2019-03-12T11:07:37.927Z,2.10
2019-03-12T11:10:27.857Z,1.77
2019-03-12T11:13:36.724Z,2.13
2019-03-12T11:16:26.602Z,1.77
2019-03-12T11:19:16.476Z,1.93
2019-03-12T11:22:06.363Z,1.97
2019-03-12T11:24:56.254Z,2.13
2019-03-12T11:27:46.408Z,1.33
2019-03-12T11:30:55.151Z,1.70
2019-03-12T11:33:25.581Z,2.07
2019-03-12T11:36:15.455Z,2.17
2019-03-12T11:42:07.658Z,1.40
2019-03-12T11:44:58.307Z,1.43
2019-03-12T11:47:48.530Z,1.67
2019-03-12T11:50:39.677Z,1.13
2019-03-12T11:53:29.580Z,0.93
2019-03-12T11:56:19.425Z,1.10
2019-03-12T11:59:09.336Z,1.43
2019-03-12T12:01:59.235Z,1.40
2019-03-12T12:04:49.100Z,1.63
2019-03-12T12:07:38.951Z,1.57
2019-03-12T12:10:28.937Z,1.70
2019-03-12T12:13:18.802Z,1.10
2019-03-12T12:19:11.821Z,1.60
2019-03-12T12:22:01.695Z,1.00
2019-03-12T12:27:55.683Z,1.20
2019-03-12T12:30:45.505Z,1.30
2019-03-12T12:33:35.365Z,1.73
2019-03-12T12:36:07.539Z,1.43
2019-03-12T12:38:57.393Z,1.60
2019-03-12T12:41:47.204Z,1.43
2019-03-12T12:44:37.059Z,1.97
2019-03-12T12:47:26.864Z,2.80
2019-03-12T12:53:19.846Z,2.60
2019-03-12T12:56:09.745Z,2.40
2019-03-12T12:58:40.230Z,1.80
2019-03-12T13:04:33.743Z,1.30
2019-03-12T13:07:35.122Z,1.67
2019-03-12T13:10:09.260Z,1.40
2019-03-12T13:12:59.117Z,1.47
2019-03-12T13:15:49.287Z,2.80
2019-03-12T13:18:39.136Z,7.23
2019-03-12T13:21:29.043Z,3.50
2019-03-12T13:23:59.474Z,2.77
2019-03-12T13:26:49.353Z,3.43
2019-03-12T13:29:39.163Z,2.23
2019-03-12T13:32:29.120Z,3.03
2019-03-12T13:35:19.140Z,2.10
2019-03-12T13:38:08.999Z,2.20
2019-03-12T13:41:02.913Z,2.70
2019-03-12T13:43:36.521Z,2.50
2019-03-12T13:46:26.416Z,2.70
2019-03-12T13:49:16.349Z,2.80
2019-03-12T13:52:06.198Z,2.17
2019-03-12T13:54:56.056Z,1.93
2019-03-12T13:57:46.038Z,2.07
2019-03-12T14:00:35.902Z,1.83
2019-03-12T14:03:25.856Z,2.20
2019-03-12T14:06:15.865Z,2.70
2019-03-12T14:08:46.313Z,2.20
2019-03-12T14:11:36.189Z,2.00
2019-03-12T14:14:26.097Z,1.97
2019-03-12T14:17:15.946Z,2.20
2019-03-12T14:23:15.441Z,1.90
2019-03-12T14:26:05.275Z,2.20
2019-03-12T14:28:55.201Z,2.43
2019-03-12T14:31:45.427Z,2.10
2019-03-12T14:34:35.291Z,1.90
2019-03-12T14:37:25.129Z,1.93
2019-03-12T14:40:15.040Z,1.90
2019-03-12T14:43:05.095Z,2.33
2019-03-12T14:49:18.398Z,2.43
2019-03-12T14:52:15.302Z,3.10
2019-03-12T14:54:48.038Z,2.40
2019-03-12T14:57:37.913Z,2.20
2019-03-12T15:00:13.239Z,1.80
2019-03-12T15:02:43.657Z,1.80
2019-03-12T15:05:33.531Z,1.70
2019-03-12T15:08:23.536Z,1.30
2019-03-12T15:11:13.418Z,1.40
2019-03-12T15:13:43.956Z,1.10
2019-03-12T15:16:33.834Z,1.47
2019-03-12T15:19:23.693Z,1.30
2019-03-12T15:22:13.620Z,1.50
2019-03-12T15:24:44.164Z,2.17
2019-03-12T15:27:34.018Z,2.07
2019-03-12T15:30:23.912Z,2.00
2019-03-12T15:33:13.764Z,2.23
2019-03-12T15:36:03.628Z,2.23
2019-03-12T15:38:53.491Z,2.60
2019-03-12T15:41:43.348Z,2.63
2019-03-12T15:44:33.211Z,2.63
2019-03-12T15:47:23.133Z,2.07
2019-03-12T15:53:16.588Z,2.57
2019-03-12T15:56:06.426Z,2.70
2019-03-12T15:58:36.932Z,2.20
2019-03-12T16:01:26.773Z,2.83
2019-03-12T16:04:17.040Z,3.30
2019-03-12T16:07:06.854Z,2.47
2019-03-12T16:09:56.740Z,2.50
2019-03-12T16:12:46.555Z,2.87
2019-03-12T16:15:37.850Z,3.23
2019-03-12T16:18:28.037Z,3.03
2019-03-12T16:21:17.927Z,2.90
2019-03-12T16:24:07.810Z,2.50
2019-03-12T16:26:57.676Z,2.93
2019-03-12T16:29:47.530Z,2.27
2019-03-12T16:32:37.413Z,2.90
2019-03-12T16:35:27.277Z,2.97
2019-03-12T16:38:17.178Z,3.30
2019-03-12T16:41:07.259Z,3.10
2019-03-12T16:43:57.152Z,3.40
2019-03-12T16:46:46.993Z,3.00
2019-03-12T16:49:36.860Z,2.90
2019-03-12T16:52:26.719Z,3.33
2019-03-12T16:55:16.623Z,3.60
2019-03-12T16:58:06.434Z,2.90
2019-03-12T17:00:56.299Z,2.80
2019-03-12T17:03:46.131Z,3.30
2019-03-12T17:06:35.969Z,3.07
2019-03-12T17:09:25.805Z,2.83
2019-03-12T17:12:15.721Z,2.47
2019-03-12T17:15:06.026Z,2.80
2019-03-12T17:17:55.883Z,2.83
2019-03-12T17:20:45.768Z,15.43
2019-03-12T17:23:35.658Z,3.90
2019-03-12T17:26:06.072Z,3.33
2019-03-12T17:28:55.923Z,3.00
2019-03-12T17:31:45.825Z,3.50
2019-03-12T17:34:36.408Z,2.47
2019-03-12T17:37:18.915Z,3.30
2019-03-12T17:40:11.792Z,3.10
2019-03-12T17:42:43.300Z,3.03
2019-03-12T17:45:33.253Z,2.53
2019-03-12T17:48:23.426Z,2.73
2019-03-12T17:51:13.307Z,3.00
2019-03-12T17:53:43.803Z,2.60
2019-03-12T17:56:33.645Z,3.07
2019-03-12T17:59:23.497Z,3.10
2019-03-12T18:02:13.451Z,3.23
2019-03-12T18:04:43.942Z,4.10
2019-03-12T18:07:33.827Z,3.20
2019-03-12T18:10:23.677Z,3.60
2019-03-12T18:13:13.742Z,3.40
2019-03-12T18:15:44.184Z,3.60
2019-03-12T18:18:34.040Z,3.10
2019-03-12T18:21:24.185Z,4.00
2019-03-12T18:24:14.101Z,3.40
2019-03-12T18:27:03.945Z,3.47
2019-03-12T18:29:53.884Z,3.90
2019-03-12T18:32:24.298Z,3.90
2019-03-12T18:35:14.336Z,3.93
2019-03-12T18:38:04.283Z,4.40
2019-03-12T18:40:54.326Z,4.40
2019-03-12T18:43:44.270Z,4.10
2019-03-12T18:46:46.118Z,4.60
2019-03-12T18:49:31.060Z,4.37
2019-03-12T18:52:02.429Z,4.40
2019-03-12T18:54:52.279Z,5.57
2019-03-12T18:57:42.084Z,3.90
2019-03-12T19:00:31.998Z,4.10
2019-03-12T19:03:40.792Z,3.40
2019-03-12T19:06:30.717Z,3.67
2019-03-12T19:09:20.575Z,3.37
2019-03-12T19:12:10.521Z,4.00
2019-03-12T19:15:00.493Z,3.83
2019-03-12T19:17:30.894Z,4.23
2019-03-12T19:20:20.730Z,5.47
2019-03-12T19:23:10.655Z,6.40
2019-03-12T19:26:00.464Z,5.47
2019-03-12T19:28:50.300Z,5.90
2019-03-12T19:32:17.995Z,6.30
2019-03-12T19:35:11.279Z,5.50
2019-03-12T19:38:01.533Z,5.80
2019-03-12T19:40:51.598Z,5.97
2019-03-12T19:43:41.455Z,6.63
2019-03-12T19:46:31.471Z,5.00
2019-03-12T19:49:01.973Z,5.63
2019-03-12T19:51:51.830Z,5.43
2019-03-12T19:54:41.789Z,4.73
2019-03-12T19:57:31.752Z,5.43
2019-03-12T20:03:18.629Z,4.80
2019-03-12T20:06:08.544Z,4.83
2019-03-12T20:08:58.439Z,5.03
2019-03-12T20:12:26.447Z,4.60
2019-03-12T20:15:54.406Z,4.77
2019-03-12T20:19:22.311Z,4.53
2019-03-12T20:22:30.811Z,4.60
2019-03-12T20:25:58.733Z,4.43
2019-03-12T20:29:15.398Z,4.60
2019-03-12T20:32:25.132Z,4.33
2019-03-12T20:35:53.052Z,4.33
2019-03-12T20:39:02.147Z,5.37
2019-03-12T20:42:30.065Z,4.30
2019-03-12T20:45:58.028Z,4.47
2019-03-12T20:49:25.966Z,5.07
2019-03-12T20:52:53.976Z,4.73
2019-03-12T20:56:21.998Z,4.40
2019-03-12T20:59:49.915Z,4.53
2019-03-12T21:03:17.829Z,4.03
2019-03-12T21:06:45.813Z,4.27
2019-03-12T21:10:13.733Z,4.33
2019-03-12T21:13:22.406Z,4.60
2019-03-12T21:16:50.371Z,3.60
2019-03-12T21:20:18.331Z,3.77
2019-03-12T21:23:46.279Z,4.60
2019-03-12T21:27:14.220Z,4.00
2019-03-12T21:30:02.348Z,3.93
2019-03-12T21:32:52.346Z,3.80
2019-03-12T21:35:53.379Z,3.20
2019-03-12T21:38:26.032Z,4.13
2019-03-12T21:41:15.993Z,4.27
2019-03-12T21:47:11.161Z,3.90
2019-03-12T21:50:01.007Z,3.87
2019-03-12T21:52:50.882Z,4.30
2019-03-12T21:55:40.703Z,3.50
2019-03-12T21:58:11.292Z,4.17
2019-03-12T22:01:01.118Z,4.50
2019-03-12T22:03:51.099Z,3.70
2019-03-12T22:06:40.946Z,4.17
2019-03-12T22:09:31.013Z,3.67
2019-03-12T22:12:20.848Z,4.33
2019-03-12T22:15:10.863Z,4.93
2019-03-12T22:17:41.357Z,5.17
2019-03-12T22:20:12.079Z,5.50
2019-03-12T22:25:55.851Z,5.33
2019-03-12T22:28:30.482Z,5.60
2019-03-12T22:31:20.343Z,5.00
2019-03-12T22:34:10.173Z,6.43
2019-03-12T22:37:00.426Z,5.67
2019-03-12T22:39:50.245Z,4.90
2019-03-12T22:42:27.054Z,4.80
2019-03-12T22:45:16.977Z,3.80
2019-03-12T22:48:06.911Z,3.20
2019-03-12T22:50:56.831Z,3.20
2019-03-12T22:53:46.682Z,3.10
2019-03-12T22:56:36.562Z,2.53
2019-03-12T22:59:26.401Z,3.00
2019-03-12T23:02:16.326Z,2.90
2019-03-12T23:05:06.492Z,2.50
2019-03-12T23:07:56.338Z,2.10
2019-03-12T23:10:46.381Z,1.73
2019-03-12T23:13:36.350Z,2.20
2019-03-12T23:16:26.208Z,2.23
2019-03-12T23:18:56.692Z,1.90
2019-03-12T23:21:46.486Z,2.33
2019-03-12T23:24:36.344Z,1.83
2019-03-12T23:27:26.269Z,1.80
2019-03-12T23:29:56.714Z,2.20
2019-03-12T23:32:46.704Z,1.90
2019-03-12T23:35:48.535Z,2.10
2019-03-12T23:38:32.866Z,2.23
2019-03-12T23:41:05.730Z,1.97
2019-03-12T23:43:55.525Z,1.93
2019-03-12T23:46:45.378Z,2.27
2019-03-12T23:49:35.213Z,2.57
2019-03-12T23:52:05.686Z,2.37
2019-03-12T23:54:55.543Z,1.93
2019-03-12T23:57:56.727Z,2.47
